sensor_id;sensor_type;location;lat;lon;timestamp;P1;durP1;ratioP1;P2;durP2;ratioP2
74650;SDS011;63169;46.042;14.592;2023-07-30T00:03:32;6.97;;;6.27;;
74650;SDS011;63169;46.042;14.592;2023-07-30T00:05:57;6.95;;;5.95;;
74650;SDS011;63169;46.042;14.592;2023-07-30T00:10:48;6.93;;;6.15;;
74650;SDS011;63169;46.042;14.592;2023-07-30T00:15:39;5.37;;;3.87;;
74650;SDS011;63169;46.042;14.592;2023-07-30T00:18:04;5.25;;;3.58;;
74650;SDS011;63169;46.042;14.592;2023-07-30T00:20:29;8.52;;;6.32;;
74650;SDS011;63169;46.042;14.592;2023-07-30T00:25:20;9.67;;;8.77;;
74650;SDS011;63169;46.042;14.592;2023-07-30T00:30:10;7.97;;;7.37;;
74650;SDS011;63169;46.042;14.592;2023-07-30T00:32:36;4.97;;;3.75;;
74650;SDS011;63169;46.042;14.592;2023-07-30T00:35:05;9.05;;;8.15;;
74650;SDS011;63169;46.042;14.592;2023-07-30T00:37:31;6.13;;;5.20;;
74650;SDS011;63169;46.042;14.592;2023-07-30T00:39:56;6.28;;;3.20;;
74650;SDS011;63169;46.042;14.592;2023-07-30T00:44:47;7.10;;;3.10;;
74650;SDS011;63169;46.042;14.592;2023-07-30T00:49:38;7.87;;;3.83;;
74650;SDS011;63169;46.042;14.592;2023-07-30T00:52:04;6.85;;;5.97;;
74650;SDS011;63169;46.042;14.592;2023-07-30T00:56:54;7.30;;;6.43;;
74650;SDS011;63169;46.042;14.592;2023-07-30T00:59:20;5.30;;;3.83;;
74650;SDS011;63169;46.042;14.592;2023-07-30T01:01:46;7.47;;;5.45;;
74650;SDS011;63169;46.042;14.592;2023-07-30T01:04:13;5.28;;;4.47;;
74650;SDS011;63169;46.042;14.592;2023-07-30T01:06:39;7.63;;;6.82;;
74650;SDS011;63169;46.042;14.592;2023-07-30T01:09:04;7.90;;;6.07;;
74650;SDS011;63169;46.042;14.592;2023-07-30T01:13:55;6.83;;;6.17;;
74650;SDS011;63169;46.042;14.592;2023-07-30T01:16:21;8.52;;;7.70;;
74650;SDS011;63169;46.042;14.592;2023-07-30T01:21:11;7.83;;;7.07;;
74650;SDS011;63169;46.042;14.592;2023-07-30T01:23:37;7.65;;;6.22;;
74650;SDS011;63169;46.042;14.592;2023-07-30T01:26:04;8.50;;;7.80;;
74650;SDS011;63169;46.042;14.592;2023-07-30T01:28:37;7.60;;;6.80;;
74650;SDS011;63169;46.042;14.592;2023-07-30T01:31:07;6.80;;;6.10;;
74650;SDS011;63169;46.042;14.592;2023-07-30T01:33:33;7.45;;;6.60;;
74650;SDS011;63169;46.042;14.592;2023-07-30T01:38:24;7.20;;;6.47;;
74650;SDS011;63169;46.042;14.592;2023-07-30T01:40:50;11.07;;;8.63;;
74650;SDS011;63169;46.042;14.592;2023-07-30T01:43:16;7.90;;;7.10;;
74650;SDS011;63169;46.042;14.592;2023-07-30T01:48:07;6.43;;;5.57;;
74650;SDS011;63169;46.042;14.592;2023-07-30T01:52:57;14.32;;;7.97;;
74650;SDS011;63169;46.042;14.592;2023-07-30T01:55:23;8.65;;;7.75;;
74650;SDS011;63169;46.042;14.592;2023-07-30T01:57:48;10.50;;;8.85;;
74650;SDS011;63169;46.042;14.592;2023-07-30T02:02:39;13.07;;;10.13;;
74650;SDS011;63169;46.042;14.592;2023-07-30T02:05:04;12.70;;;6.90;;
74650;SDS011;63169;46.042;14.592;2023-07-30T02:09:55;15.95;;;9.63;;
74650;SDS011;63169;46.042;14.592;2023-07-30T02:12:21;9.18;;;5.88;;
74650;SDS011;63169;46.042;14.592;2023-07-30T02:14:46;12.85;;;9.30;;
74650;SDS011;63169;46.042;14.592;2023-07-30T02:19:37;12.10;;;9.43;;
74650;SDS011;63169;46.042;14.592;2023-07-30T02:22:02;10.68;;;9.30;;
74650;SDS011;63169;46.042;14.592;2023-07-30T02:26:53;8.33;;;7.47;;
74650;SDS011;63169;46.042;14.592;2023-07-30T02:29:19;11.65;;;9.13;;
74650;SDS011;63169;46.042;14.592;2023-07-30T02:31:44;9.40;;;8.40;;
74650;SDS011;63169;46.042;14.592;2023-07-30T02:34:09;7.40;;;6.72;;
74650;SDS011;63169;46.042;14.592;2023-07-30T02:36:35;9.70;;;7.15;;
74650;SDS011;63169;46.042;14.592;2023-07-30T02:39:00;8.18;;;7.38;;
74650;SDS011;63169;46.042;14.592;2023-07-30T02:41:26;8.93;;;7.97;;
74650;SDS011;63169;46.042;14.592;2023-07-30T02:43:51;9.85;;;7.60;;
74650;SDS011;63169;46.042;14.592;2023-07-30T02:46:16;9.20;;;8.23;;
74650;SDS011;63169;46.042;14.592;2023-07-30T02:48:42;5.90;;;4.32;;
74650;SDS011;63169;46.042;14.592;2023-07-30T02:51:07;6.30;;;3.85;;
74650;SDS011;63169;46.042;14.592;2023-07-30T02:53:32;8.00;;;7.20;;
74650;SDS011;63169;46.042;14.592;2023-07-30T02:55:58;7.70;;;6.97;;
74650;SDS011;63169;46.042;14.592;2023-07-30T02:58:23;8.93;;;8.02;;
74650;SDS011;63169;46.042;14.592;2023-07-30T03:03:14;10.00;;;9.10;;
74650;SDS011;63169;46.042;14.592;2023-07-30T03:05:42;10.25;;;9.30;;
74650;SDS011;63169;46.042;14.592;2023-07-30T03:08:08;11.98;;;9.27;;
74650;SDS011;63169;46.042;14.592;2023-07-30T03:10:33;9.88;;;8.55;;
74650;SDS011;63169;46.042;14.592;2023-07-30T03:12:59;9.98;;;8.95;;
74650;SDS011;63169;46.042;14.592;2023-07-30T03:17:49;11.67;;;9.83;;
74650;SDS011;63169;46.042;14.592;2023-07-30T03:20:15;11.00;;;8.35;;
74650;SDS011;63169;46.042;14.592;2023-07-30T03:25:05;11.47;;;10.27;;
74650;SDS011;63169;46.042;14.592;2023-07-30T03:27:31;12.57;;;11.25;;
74650;SDS011;63169;46.042;14.592;2023-07-30T03:32:21;11.73;;;10.67;;
74650;SDS011;63169;46.042;14.592;2023-07-30T03:34:47;10.10;;;7.70;;
74650;SDS011;63169;46.042;14.592;2023-07-30T03:37:12;9.55;;;8.63;;
74650;SDS011;63169;46.042;14.592;2023-07-30T03:42:03;7.40;;;5.82;;
74650;SDS011;63169;46.042;14.592;2023-07-30T03:46:54;9.37;;;8.53;;
74650;SDS011;63169;46.042;14.592;2023-07-30T03:49:19;9.07;;;8.18;;
74650;SDS011;63169;46.042;14.592;2023-07-30T03:51:44;11.70;;;8.85;;
74650;SDS011;63169;46.042;14.592;2023-07-30T03:54:10;10.95;;;9.95;;
74650;SDS011;63169;46.042;14.592;2023-07-30T03:59:00;8.07;;;7.20;;
74650;SDS011;63169;46.042;14.592;2023-07-30T04:01:26;4.60;;;3.45;;
74650;SDS011;63169;46.042;14.592;2023-07-30T04:03:51;6.30;;;5.75;;
74650;SDS011;63169;46.042;14.592;2023-07-30T04:06:16;4.32;;;2.70;;
74650;SDS011;63169;46.042;14.592;2023-07-30T04:08:42;6.60;;;5.90;;
74650;SDS011;63169;46.042;14.592;2023-07-30T04:11:07;7.60;;;7.03;;
74650;SDS011;63169;46.042;14.592;2023-07-30T04:13:32;6.13;;;5.45;;
74650;SDS011;63169;46.042;14.592;2023-07-30T04:15:58;6.70;;;6.10;;
74650;SDS011;63169;46.042;14.592;2023-07-30T04:18:23;7.15;;;6.57;;
74650;SDS011;63169;46.042;14.592;2023-07-30T04:20:49;6.65;;;6.15;;
74650;SDS011;63169;46.042;14.592;2023-07-30T04:23:14;4.22;;;3.83;;
74650;SDS011;63169;46.042;14.592;2023-07-30T04:25:40;3.30;;;1.92;;
74650;SDS011;63169;46.042;14.592;2023-07-30T04:30:30;2.97;;;2.10;;
74650;SDS011;63169;46.042;14.592;2023-07-30T04:32:57;4.88;;;4.40;;
74650;SDS011;63169;46.042;14.592;2023-07-30T04:35:22;5.10;;;4.70;;
74650;SDS011;63169;46.042;14.592;2023-07-30T04:37:48;5.10;;;4.43;;
74650;SDS011;63169;46.042;14.592;2023-07-30T04:40:13;6.15;;;5.65;;
74650;SDS011;63169;46.042;14.592;2023-07-30T04:42:38;5.45;;;4.95;;
74650;SDS011;63169;46.042;14.592;2023-07-30T04:47:29;3.78;;;3.45;;
74650;SDS011;63169;46.042;14.592;2023-07-30T04:52:20;5.27;;;4.20;;
74650;SDS011;63169;46.042;14.592;2023-07-30T04:54:45;2.95;;;1.77;;
74650;SDS011;63169;46.042;14.592;2023-07-30T04:57:10;4.22;;;3.83;;
74650;SDS011;63169;46.042;14.592;2023-07-30T04:59:36;3.67;;;1.42;;
74650;SDS011;63169;46.042;14.592;2023-07-30T05:02:01;3.65;;;1.55;;
74650;SDS011;63169;46.042;14.592;2023-07-30T05:04:27;4.47;;;4.07;;
74650;SDS011;63169;46.042;14.592;2023-07-30T05:06:52;3.22;;;1.95;;
74650;SDS011;63169;46.042;14.592;2023-07-30T05:09:17;4.57;;;4.20;;
74650;SDS011;63169;46.042;14.592;2023-07-30T05:11:43;4.85;;;4.45;;
74650;SDS011;63169;46.042;14.592;2023-07-30T05:14:08;3.97;;;3.63;;
74650;SDS011;63169;46.042;14.592;2023-07-30T05:16:33;4.15;;;3.78;;
74650;SDS011;63169;46.042;14.592;2023-07-30T05:19:01;6.50;;;6.00;;
74650;SDS011;63169;46.042;14.592;2023-07-30T05:21:26;3.05;;;1.75;;
74650;SDS011;63169;46.042;14.592;2023-07-30T05:23:52;3.67;;;3.38;;
74650;SDS011;63169;46.042;14.592;2023-07-30T05:26:17;3.67;;;2.22;;
74650;SDS011;63169;46.042;14.592;2023-07-30T05:28:42;5.25;;;4.85;;
74650;SDS011;63169;46.042;14.592;2023-07-30T05:31:08;5.07;;;4.68;;
74650;SDS011;63169;46.042;14.592;2023-07-30T05:33:33;6.10;;;5.60;;
74650;SDS011;63169;46.042;14.592;2023-07-30T05:35:58;4.47;;;4.13;;
74650;SDS011;63169;46.042;14.592;2023-07-30T05:38:24;3.00;;;2.45;;
74650;SDS011;63169;46.042;14.592;2023-07-30T05:40:49;5.45;;;4.95;;
74650;SDS011;63169;46.042;14.592;2023-07-30T05:43:14;3.80;;;2.88;;
74650;SDS011;63169;46.042;14.592;2023-07-30T05:45:40;5.00;;;4.60;;
74650;SDS011;63169;46.042;14.592;2023-07-30T05:48:06;5.07;;;4.72;;
74650;SDS011;63169;46.042;14.592;2023-07-30T05:50:31;5.32;;;4.97;;
74650;SDS011;63169;46.042;14.592;2023-07-30T05:52:56;5.45;;;5.05;;
74650;SDS011;63169;46.042;14.592;2023-07-30T05:55:22;2.28;;;1.60;;
74650;SDS011;63169;46.042;14.592;2023-07-30T05:57:47;5.70;;;5.35;;
74650;SDS011;63169;46.042;14.592;2023-07-30T06:00:13;35.63;;;26.85;;
74650;SDS011;63169;46.042;14.592;2023-07-30T06:02:38;15.68;;;12.95;;
74650;SDS011;63169;46.042;14.592;2023-07-30T06:05:04;6.05;;;5.55;;
74650;SDS011;63169;46.042;14.592;2023-07-30T06:07:29;5.25;;;4.85;;
74650;SDS011;63169;46.042;14.592;2023-07-30T06:09:55;4.28;;;3.95;;
74650;SDS011;63169;46.042;14.592;2023-07-30T06:12:20;4.13;;;3.83;;
74650;SDS011;63169;46.042;14.592;2023-07-30T06:14:45;5.13;;;4.82;;
74650;SDS011;63169;46.042;14.592;2023-07-30T06:17:11;6.32;;;5.72;;
74650;SDS011;63169;46.042;14.592;2023-07-30T06:19:36;5.70;;;5.28;;
74650;SDS011;63169;46.042;14.592;2023-07-30T06:22:03;4.53;;;4.13;;
74650;SDS011;63169;46.042;14.592;2023-07-30T06:24:28;5.03;;;4.63;;
74650;SDS011;63169;46.042;14.592;2023-07-30T06:26:54;4.63;;;4.25;;
74650;SDS011;63169;46.042;14.592;2023-07-30T06:29:19;5.40;;;4.90;;
74650;SDS011;63169;46.042;14.592;2023-07-30T06:31:44;5.80;;;5.30;;
74650;SDS011;63169;46.042;14.592;2023-07-30T06:36:35;4.43;;;4.03;;
74650;SDS011;63169;46.042;14.592;2023-07-30T06:41:26;7.37;;;6.13;;
74650;SDS011;63169;46.042;14.592;2023-07-30T06:43:51;5.07;;;3.92;;
74650;SDS011;63169;46.042;14.592;2023-07-30T06:46:16;5.03;;;4.30;;
74650;SDS011;63169;46.042;14.592;2023-07-30T06:48:42;6.28;;;3.83;;
74650;SDS011;63169;46.042;14.592;2023-07-30T06:53:34;3.50;;;1.83;;
74650;SDS011;63169;46.042;14.592;2023-07-30T06:55:59;4.93;;;4.47;;
74650;SDS011;63169;46.042;14.592;2023-07-30T07:00:50;4.30;;;4.00;;
74650;SDS011;63169;46.042;14.592;2023-07-30T07:03:15;6.43;;;5.38;;
74650;SDS011;63169;46.042;14.592;2023-07-30T07:05:40;5.47;;;5.07;;
74650;SDS011;63169;46.042;14.592;2023-07-30T07:08:06;3.25;;;2.95;;
74650;SDS011;63169;46.042;14.592;2023-07-30T07:12:56;3.90;;;3.60;;
74650;SDS011;63169;46.042;14.592;2023-07-30T07:15:22;4.55;;;4.25;;
74650;SDS011;63169;46.042;14.592;2023-07-30T07:20:12;4.87;;;4.53;;
74650;SDS011;63169;46.042;14.592;2023-07-30T07:25:03;3.08;;;2.88;;
74650;SDS011;63169;46.042;14.592;2023-07-30T07:29:54;4.10;;;3.90;;
74650;SDS011;63169;46.042;14.592;2023-07-30T07:34:48;3.87;;;3.57;;
74650;SDS011;63169;46.042;14.592;2023-07-30T07:37:14;4.40;;;4.00;;
74650;SDS011;63169;46.042;14.592;2023-07-30T07:39:43;3.85;;;3.65;;
74650;SDS011;63169;46.042;14.592;2023-07-30T07:42:12;4.25;;;3.85;;
74650;SDS011;63169;46.042;14.592;2023-07-30T07:47:03;4.05;;;3.75;;
74650;SDS011;63169;46.042;14.592;2023-07-30T07:51:54;4.22;;;3.92;;
74650;SDS011;63169;46.042;14.592;2023-07-30T07:56:44;2.80;;;2.60;;
74650;SDS011;63169;46.042;14.592;2023-07-30T08:01:35;4.77;;;4.47;;
74650;SDS011;63169;46.042;14.592;2023-07-30T08:06:26;2.30;;;2.10;;
74650;SDS011;63169;46.042;14.592;2023-07-30T08:08:51;3.10;;;2.90;;
74650;SDS011;63169;46.042;14.592;2023-07-30T08:11:17;2.97;;;2.78;;
74650;SDS011;63169;46.042;14.592;2023-07-30T08:13:42;3.25;;;2.83;;
74650;SDS011;63169;46.042;14.592;2023-07-30T08:18:33;3.47;;;3.27;;
74650;SDS011;63169;46.042;14.592;2023-07-30T08:20:59;3.10;;;2.90;;
74650;SDS011;63169;46.042;14.592;2023-07-30T08:23:25;3.75;;;3.55;;
74650;SDS011;63169;46.042;14.592;2023-07-30T08:25:50;1.33;;;0.55;;
74650;SDS011;63169;46.042;14.592;2023-07-30T08:28:16;2.75;;;2.55;;
74650;SDS011;63169;46.042;14.592;2023-07-30T08:30:41;3.05;;;2.85;;
74650;SDS011;63169;46.042;14.592;2023-07-30T08:33:06;3.97;;;3.78;;
74650;SDS011;63169;46.042;14.592;2023-07-30T08:35:32;3.75;;;3.45;;
74650;SDS011;63169;46.042;14.592;2023-07-30T08:37:57;3.22;;;3.03;;
74650;SDS011;63169;46.042;14.592;2023-07-30T08:40:22;3.83;;;3.58;;
74650;SDS011;63169;46.042;14.592;2023-07-30T08:42:49;3.00;;;2.80;;
74650;SDS011;63169;46.042;14.592;2023-07-30T08:45:15;4.30;;;4.10;;
74650;SDS011;63169;46.042;14.592;2023-07-30T08:47:41;1.23;;;0.77;;
74650;SDS011;63169;46.042;14.592;2023-07-30T08:50:07;3.17;;;2.97;;
74650;SDS011;63169;46.042;14.592;2023-07-30T08:52:32;3.38;;;3.15;;
74650;SDS011;63169;46.042;14.592;2023-07-30T08:55:01;3.95;;;3.65;;
74650;SDS011;63169;46.042;14.592;2023-07-30T08:57:28;1.48;;;0.43;;
74650;SDS011;63169;46.042;14.592;2023-07-30T08:59:54;3.70;;;3.50;;
74650;SDS011;63169;46.042;14.592;2023-07-30T09:05:05;3.25;;;2.78;;
74650;SDS011;63169;46.042;14.592;2023-07-30T09:07:31;3.97;;;3.72;;
74650;SDS011;63169;46.042;14.592;2023-07-30T09:09:56;3.55;;;3.25;;
74650;SDS011;63169;46.042;14.592;2023-07-30T09:12:31;3.38;;;3.17;;
74650;SDS011;63169;46.042;14.592;2023-07-30T09:14:58;3.15;;;2.92;;
74650;SDS011;63169;46.042;14.592;2023-07-30T09:17:23;3.65;;;3.45;;
74650;SDS011;63169;46.042;14.592;2023-07-30T09:19:50;1.10;;;0.60;;
74650;SDS011;63169;46.042;14.592;2023-07-30T09:22:20;3.30;;;3.10;;
74650;SDS011;63169;46.042;14.592;2023-07-30T09:24:55;3.85;;;3.65;;
74650;SDS011;63169;46.042;14.592;2023-07-30T09:27:22;4.60;;;4.30;;
74650;SDS011;63169;46.042;14.592;2023-07-30T09:29:54;3.85;;;3.55;;
74650;SDS011;63169;46.042;14.592;2023-07-30T09:32:28;3.28;;;3.08;;
74650;SDS011;63169;46.042;14.592;2023-07-30T09:34:54;2.97;;;2.78;;
74650;SDS011;63169;46.042;14.592;2023-07-30T09:37:20;3.85;;;3.55;;
74650;SDS011;63169;46.042;14.592;2023-07-30T09:39:49;3.40;;;3.20;;
74650;SDS011;63169;46.042;14.592;2023-07-30T09:42:15;3.33;;;3.13;;
74650;SDS011;63169;46.042;14.592;2023-07-30T09:44:40;3.25;;;3.03;;
74650;SDS011;63169;46.042;14.592;2023-07-30T09:47:09;3.85;;;3.65;;
74650;SDS011;63169;46.042;14.592;2023-07-30T09:49:35;1.90;;;0.63;;
74650;SDS011;63169;46.042;14.592;2023-07-30T09:52:04;3.28;;;3.08;;
74650;SDS011;63169;46.042;14.592;2023-07-30T09:54:31;4.22;;;4.03;;
74650;SDS011;63169;46.042;14.592;2023-07-30T09:56:57;3.40;;;3.20;;
74650;SDS011;63169;46.042;14.592;2023-07-30T09:59:23;2.80;;;2.60;;
74650;SDS011;63169;46.042;14.592;2023-07-30T10:01:49;2.83;;;2.58;;
74650;SDS011;63169;46.042;14.592;2023-07-30T10:04:15;2.65;;;2.45;;
74650;SDS011;63169;46.042;14.592;2023-07-30T10:07:03;3.80;;;3.50;;
74650;SDS011;63169;46.042;14.592;2023-07-30T10:09:36;3.05;;;2.85;;
74650;SDS011;63169;46.042;14.592;2023-07-30T10:12:09;4.75;;;4.55;;
74650;SDS011;63169;46.042;14.592;2023-07-30T10:14:35;4.13;;;3.92;;
74650;SDS011;63169;46.042;14.592;2023-07-30T10:17:01;2.70;;;2.50;;
74650;SDS011;63169;46.042;14.592;2023-07-30T10:19:26;3.67;;;3.47;;
74650;SDS011;63169;46.042;14.592;2023-07-30T10:27:05;3.53;;;3.22;;
74650;SDS011;63169;46.042;14.592;2023-07-30T10:29:35;2.97;;;2.78;;
74650;SDS011;63169;46.042;14.592;2023-07-30T10:32:01;4.13;;;3.92;;
74650;SDS011;63169;46.042;14.592;2023-07-30T10:34:43;3.67;;;3.47;;
74650;SDS011;63169;46.042;14.592;2023-07-30T10:37:09;2.88;;;2.67;;
74650;SDS011;63169;46.042;14.592;2023-07-30T10:39:34;4.15;;;3.95;;
74650;SDS011;63169;46.042;14.592;2023-07-30T10:42:00;1.67;;;0.55;;
74650;SDS011;63169;46.042;14.592;2023-07-30T10:44:30;3.03;;;2.83;;
74650;SDS011;63169;46.042;14.592;2023-07-30T10:46:57;1.83;;;0.77;;
74650;SDS011;63169;46.042;14.592;2023-07-30T10:49:23;1.55;;;0.52;;
74650;SDS011;63169;46.042;14.592;2023-07-30T10:51:56;3.13;;;2.92;;
74650;SDS011;63169;46.042;14.592;2023-07-30T10:54:25;2.72;;;2.53;;
74650;SDS011;63169;46.042;14.592;2023-07-30T10:56:50;3.35;;;3.05;;
74650;SDS011;63169;46.042;14.592;2023-07-30T10:59:16;3.53;;;3.33;;
74650;SDS011;63169;46.042;14.592;2023-07-30T11:01:43;3.28;;;3.03;;
74650;SDS011;63169;46.042;14.592;2023-07-30T11:04:17;3.08;;;2.88;;
74650;SDS011;63169;46.042;14.592;2023-07-30T11:06:45;2.92;;;2.72;;
74650;SDS011;63169;46.042;14.592;2023-07-30T11:09:22;1.45;;;0.73;;
74650;SDS011;63169;46.042;14.592;2023-07-30T11:11:50;3.97;;;3.67;;
74650;SDS011;63169;46.042;14.592;2023-07-30T11:14:20;2.63;;;2.42;;
74650;SDS011;63169;46.042;14.592;2023-07-30T11:16:48;2.33;;;2.15;;
74650;SDS011;63169;46.042;14.592;2023-07-30T11:19:17;3.13;;;2.92;;
74650;SDS011;63169;46.042;14.592;2023-07-30T11:21:46;3.55;;;3.35;;
74650;SDS011;63169;46.042;14.592;2023-07-30T11:24:11;1.73;;;1.23;;
74650;SDS011;63169;46.042;14.592;2023-07-30T11:26:36;3.38;;;3.17;;
74650;SDS011;63169;46.042;14.592;2023-07-30T11:29:13;3.13;;;2.92;;
74650;SDS011;63169;46.042;14.592;2023-07-30T11:31:42;2.60;;;2.40;;
74650;SDS011;63169;46.042;14.592;2023-07-30T11:34:08;2.65;;;2.45;;
74650;SDS011;63169;46.042;14.592;2023-07-30T11:36:34;3.45;;;3.25;;
74650;SDS011;63169;46.042;14.592;2023-07-30T11:38:59;4.72;;;4.43;;
74650;SDS011;63169;46.042;14.592;2023-07-30T11:41:25;3.80;;;3.60;;
74650;SDS011;63169;46.042;14.592;2023-07-30T11:43:50;3.53;;;3.33;;
74650;SDS011;63169;46.042;14.592;2023-07-30T11:46:17;3.40;;;3.20;;
74650;SDS011;63169;46.042;14.592;2023-07-30T11:48:45;5.25;;;4.95;;
74650;SDS011;63169;46.042;14.592;2023-07-30T11:51:27;3.20;;;3.00;;
74650;SDS011;63169;46.042;14.592;2023-07-30T11:53:57;3.28;;;3.08;;
74650;SDS011;63169;46.042;14.592;2023-07-30T11:56:25;2.60;;;2.40;;
74650;SDS011;63169;46.042;14.592;2023-07-30T11:58:54;3.53;;;3.33;;
74650;SDS011;63169;46.042;14.592;2023-07-30T12:01:39;3.03;;;2.85;;
74650;SDS011;63169;46.042;14.592;2023-07-30T12:04:07;2.92;;;2.72;;
74650;SDS011;63169;46.042;14.592;2023-07-30T12:09:14;1.23;;;0.32;;
74650;SDS011;63169;46.042;14.592;2023-07-30T12:11:51;0.82;;;0.45;;
74650;SDS011;63169;46.042;14.592;2023-07-30T12:14:18;2.90;;;2.70;;
74650;SDS011;63169;46.042;14.592;2023-07-30T12:16:46;3.17;;;2.97;;
74650;SDS011;63169;46.042;14.592;2023-07-30T12:19:11;3.83;;;3.63;;
74650;SDS011;63169;46.042;14.592;2023-07-30T12:21:36;3.22;;;3.03;;
74650;SDS011;63169;46.042;14.592;2023-07-30T12:24:02;3.13;;;2.65;;
74650;SDS011;63169;46.042;14.592;2023-07-30T12:26:28;1.90;;;1.23;;
74650;SDS011;63169;46.042;14.592;2023-07-30T12:28:53;3.30;;;3.00;;
74650;SDS011;63169;46.042;14.592;2023-07-30T12:31:19;3.85;;;3.65;;
74650;SDS011;63169;46.042;14.592;2023-07-30T12:33:44;4.10;;;3.80;;
74650;SDS011;63169;46.042;14.592;2023-07-30T12:36:09;3.78;;;3.58;;
74650;SDS011;63169;46.042;14.592;2023-07-30T12:38:35;3.00;;;2.80;;
74650;SDS011;63169;46.042;14.592;2023-07-30T12:41:00;4.05;;;3.75;;
74650;SDS011;63169;46.042;14.592;2023-07-30T12:43:26;1.50;;;0.45;;
74650;SDS011;63169;46.042;14.592;2023-07-30T12:45:51;2.25;;;2.05;;
74650;SDS011;63169;46.042;14.592;2023-07-30T12:48:16;2.80;;;2.60;;
74650;SDS011;63169;46.042;14.592;2023-07-30T12:50:42;2.88;;;2.67;;
74650;SDS011;63169;46.042;14.592;2023-07-30T12:53:07;3.25;;;3.05;;
74650;SDS011;63169;46.042;14.592;2023-07-30T12:55:33;4.28;;;4.07;;
74650;SDS011;63169;46.042;14.592;2023-07-30T12:57:58;1.00;;;0.60;;
74650;SDS011;63169;46.042;14.592;2023-07-30T13:00:24;2.25;;;2.05;;
74650;SDS011;63169;46.042;14.592;2023-07-30T13:02:49;3.03;;;2.83;;
74650;SDS011;63169;46.042;14.592;2023-07-30T13:05:17;3.55;;;3.35;;
74650;SDS011;63169;46.042;14.592;2023-07-30T13:07:43;4.05;;;3.83;;
74650;SDS011;63169;46.042;14.592;2023-07-30T13:10:08;2.72;;;2.53;;
74650;SDS011;63169;46.042;14.592;2023-07-30T13:12:34;1.33;;;0.60;;
74650;SDS011;63169;46.042;14.592;2023-07-30T13:15:00;2.83;;;2.63;;
74650;SDS011;63169;46.042;14.592;2023-07-30T13:17:26;4.53;;;3.97;;
74650;SDS011;63169;46.042;14.592;2023-07-30T13:19:51;2.60;;;2.50;;
74650;SDS011;63169;46.042;14.592;2023-07-30T13:22:16;3.28;;;3.08;;
74650;SDS011;63169;46.042;14.592;2023-07-30T13:24:42;2.95;;;2.75;;
74650;SDS011;63169;46.042;14.592;2023-07-30T13:27:07;2.75;;;2.58;;
74650;SDS011;63169;46.042;14.592;2023-07-30T13:29:32;2.17;;;1.98;;
74650;SDS011;63169;46.042;14.592;2023-07-30T13:31:58;2.47;;;2.38;;
74650;SDS011;63169;46.042;14.592;2023-07-30T13:34:23;2.90;;;2.70;;
74650;SDS011;63169;46.042;14.592;2023-07-30T13:36:49;1.98;;;0.60;;
74650;SDS011;63169;46.042;14.592;2023-07-30T13:39:14;4.18;;;3.97;;
74650;SDS011;63169;46.042;14.592;2023-07-30T13:41:40;3.25;;;3.05;;
74650;SDS011;63169;46.042;14.592;2023-07-30T13:44:05;3.03;;;2.88;;
74650;SDS011;63169;46.042;14.592;2023-07-30T13:46:30;3.35;;;3.15;;
74650;SDS011;63169;46.042;14.592;2023-07-30T13:48:56;2.80;;;2.65;;
74650;SDS011;63169;46.042;14.592;2023-07-30T13:51:21;1.08;;;0.38;;
74650;SDS011;63169;46.042;14.592;2023-07-30T13:53:46;0.88;;;0.40;;
74650;SDS011;63169;46.042;14.592;2023-07-30T13:56:12;2.58;;;2.40;;
74650;SDS011;63169;46.042;14.592;2023-07-30T13:58:37;2.70;;;2.50;;
74650;SDS011;63169;46.042;14.592;2023-07-30T14:01:04;3.03;;;2.83;;
74650;SDS011;63169;46.042;14.592;2023-07-30T14:03:30;2.47;;;2.35;;
74650;SDS011;63169;46.042;14.592;2023-07-30T14:05:55;2.95;;;2.75;;
74650;SDS011;63169;46.042;14.592;2023-07-30T14:08:20;1.33;;;0.40;;
74650;SDS011;63169;46.042;14.592;2023-07-30T14:10:46;2.33;;;2.15;;
74650;SDS011;63169;46.042;14.592;2023-07-30T14:13:11;2.45;;;2.35;;
74650;SDS011;63169;46.042;14.592;2023-07-30T14:15:36;3.05;;;2.85;;
74650;SDS011;63169;46.042;14.592;2023-07-30T14:18:02;2.92;;;2.72;;
74650;SDS011;63169;46.042;14.592;2023-07-30T14:20:27;4.05;;;3.85;;
74650;SDS011;63169;46.042;14.592;2023-07-30T14:22:53;2.17;;;1.98;;
74650;SDS011;63169;46.042;14.592;2023-07-30T14:25:19;3.25;;;3.05;;
74650;SDS011;63169;46.042;14.592;2023-07-30T14:27:44;2.33;;;2.22;;
74650;SDS011;63169;46.042;14.592;2023-07-30T14:30:10;2.17;;;2.08;;
74650;SDS011;63169;46.042;14.592;2023-07-30T14:32:36;3.13;;;2.67;;
74650;SDS011;63169;46.042;14.592;2023-07-30T14:35:01;2.20;;;2.05;;
74650;SDS011;63169;46.042;14.592;2023-07-30T14:37:27;6.35;;;2.58;;
74650;SDS011;63169;46.042;14.592;2023-07-30T14:39:52;3.05;;;2.85;;
74650;SDS011;63169;46.042;14.592;2023-07-30T14:42:17;3.05;;;2.85;;
74650;SDS011;63169;46.042;14.592;2023-07-30T14:44:43;4.03;;;2.92;;
74650;SDS011;63169;46.042;14.592;2023-07-30T14:47:08;2.67;;;2.47;;
74650;SDS011;63169;46.042;14.592;2023-07-30T14:49:35;3.25;;;2.85;;
74650;SDS011;63169;46.042;14.592;2023-07-30T14:52:00;2.85;;;2.55;;
74650;SDS011;63169;46.042;14.592;2023-07-30T14:54:26;2.83;;;2.63;;
74650;SDS011;63169;46.042;14.592;2023-07-30T14:56:51;2.58;;;2.38;;
74650;SDS011;63169;46.042;14.592;2023-07-30T14:59:17;3.17;;;2.97;;
74650;SDS011;63169;46.042;14.592;2023-07-30T15:01:42;3.33;;;3.13;;
74650;SDS011;63169;46.042;14.592;2023-07-30T15:04:07;2.67;;;2.50;;
74650;SDS011;63169;46.042;14.592;2023-07-30T15:06:33;1.30;;;1.00;;
74650;SDS011;63169;46.042;14.592;2023-07-30T15:08:58;2.83;;;2.63;;
74650;SDS011;63169;46.042;14.592;2023-07-30T15:11:24;2.90;;;2.70;;
74650;SDS011;63169;46.042;14.592;2023-07-30T15:13:49;2.88;;;2.67;;
74650;SDS011;63169;46.042;14.592;2023-07-30T15:16:15;2.53;;;2.40;;
74650;SDS011;63169;46.042;14.592;2023-07-30T15:18:43;3.00;;;2.80;;
74650;SDS011;63169;46.042;14.592;2023-07-30T15:21:09;2.78;;;2.60;;
74650;SDS011;63169;46.042;14.592;2023-07-30T15:23:35;2.35;;;2.25;;
74650;SDS011;63169;46.042;14.592;2023-07-30T15:26:01;2.92;;;2.72;;
74650;SDS011;63169;46.042;14.592;2023-07-30T15:28:26;3.63;;;3.33;;
74650;SDS011;63169;46.042;14.592;2023-07-30T15:30:52;2.72;;;2.53;;
74650;SDS011;63169;46.042;14.592;2023-07-30T15:33:17;2.70;;;2.50;;
74650;SDS011;63169;46.042;14.592;2023-07-30T15:35:42;3.40;;;3.20;;
74650;SDS011;63169;46.042;14.592;2023-07-30T15:38:08;3.13;;;1.20;;
74650;SDS011;63169;46.042;14.592;2023-07-30T15:40:33;4.72;;;3.00;;
74650;SDS011;63169;46.042;14.592;2023-07-30T15:43:00;2.88;;;2.67;;
74650;SDS011;63169;46.042;14.592;2023-07-30T15:45:27;4.72;;;4.45;;
74650;SDS011;63169;46.042;14.592;2023-07-30T15:47:53;3.10;;;2.90;;
74650;SDS011;63169;46.042;14.592;2023-07-30T15:50:18;2.85;;;2.65;;
74650;SDS011;63169;46.042;14.592;2023-07-30T15:52:44;3.50;;;3.20;;
74650;SDS011;63169;46.042;14.592;2023-07-30T15:55:09;4.55;;;3.25;;
74650;SDS011;63169;46.042;14.592;2023-07-30T15:57:34;2.90;;;2.70;;
74650;SDS011;63169;46.042;14.592;2023-07-30T16:00:00;3.45;;;3.25;;
74650;SDS011;63169;46.042;14.592;2023-07-30T16:02:25;2.42;;;2.22;;
74650;SDS011;63169;46.042;14.592;2023-07-30T16:04:51;2.97;;;2.78;;
74650;SDS011;63169;46.042;14.592;2023-07-30T16:07:16;2.92;;;2.72;;
74650;SDS011;63169;46.042;14.592;2023-07-30T16:09:42;1.83;;;1.27;;
74650;SDS011;63169;46.042;14.592;2023-07-30T16:12:07;2.67;;;2.47;;
74650;SDS011;63169;46.042;14.592;2023-07-30T16:14:33;3.13;;;2.92;;
74650;SDS011;63169;46.042;14.592;2023-07-30T16:16:58;16.10;;;10.05;;
74650;SDS011;63169;46.042;14.592;2023-07-30T16:19:24;3.83;;;3.53;;